sensor_id;sensor_type;location;lat;lon;timestamp;temperature;humidity
28530;DHT22;15737;49.760;6.632;2024-03-29T00:02:14;8.40;99.90
28530;DHT22;15737;49.760;6.632;2024-03-29T00:04:39;8.50;99.90
28530;DHT22;15737;49.760;6.632;2024-03-29T00:07:05;8.60;99.90
28530;DHT22;15737;49.760;6.632;2024-03-29T00:09:30;8.70;99.90
28530;DHT22;15737;49.760;6.632;2024-03-29T00:11:56;8.80;99.90
28530;DHT22;15737;49.760;6.632;2024-03-29T00:14:21;8.80;99.90
28530;DHT22;15737;49.760;6.632;2024-03-29T00:16:50;8.80;99.90
28530;DHT22;15737;49.760;6.632;2024-03-29T00:19:15;8.80;99.90
28530;DHT22;15737;49.760;6.632;2024-03-29T00:21:41;8.80;99.90
28530;DHT22;15737;49.760;6.632;2024-03-29T00:26:37;8.80;99.90
28530;DHT22;15737;49.760;6.632;2024-03-29T00:29:02;8.70;99.90
28530;DHT22;15737;49.760;6.632;2024-03-29T00:31:28;8.70;99.90
28530;DHT22;15737;49.760;6.632;2024-03-29T00:33:53;8.60;99.90
28530;DHT22;15737;49.760;6.632;2024-03-29T00:36:19;8.60;99.90
28530;DHT22;15737;49.760;6.632;2024-03-29T00:38:44;8.50;99.90
28530;DHT22;15737;49.760;6.632;2024-03-29T00:41:10;8.40;99.90
28530;DHT22;15737;49.760;6.632;2024-03-29T00:43:35;8.30;99.90
28530;DHT22;15737;49.760;6.632;2024-03-29T00:46:01;8.30;99.90
28530;DHT22;15737;49.760;6.632;2024-03-29T00:48:26;8.30;99.90
28530;DHT22;15737;49.760;6.632;2024-03-29T00:53:32;8.30;99.90
28530;DHT22;15737;49.760;6.632;2024-03-29T00:55:57;8.30;99.90
28530;DHT22;15737;49.760;6.632;2024-03-29T00:58:23;8.40;99.90
28530;DHT22;15737;49.760;6.632;2024-03-29T01:00:48;8.40;99.90
28530;DHT22;15737;49.760;6.632;2024-03-29T01:03:14;8.40;99.90
28530;DHT22;15737;49.760;6.632;2024-03-29T01:05:39;8.40;99.90
28530;DHT22;15737;49.760;6.632;2024-03-29T01:08:05;8.40;99.90
28530;DHT22;15737;49.760;6.632;2024-03-29T01:10:31;8.40;99.90
28530;DHT22;15737;49.760;6.632;2024-03-29T01:12:57;8.50;99.90
28530;DHT22;15737;49.760;6.632;2024-03-29T01:15:22;8.60;99.90
28530;DHT22;15737;49.760;6.632;2024-03-29T01:17:53;8.70;99.90
28530;DHT22;15737;49.760;6.632;2024-03-29T01:20:19;8.70;99.90
28530;DHT22;15737;49.760;6.632;2024-03-29T01:22:45;8.60;99.90
28530;DHT22;15737;49.760;6.632;2024-03-29T01:25:10;8.70;99.90
28530;DHT22;15737;49.760;6.632;2024-03-29T01:27:39;8.80;99.90
28530;DHT22;15737;49.760;6.632;2024-03-29T01:32:35;8.50;99.90
28530;DHT22;15737;49.760;6.632;2024-03-29T01:35:00;8.30;99.90
28530;DHT22;15737;49.760;6.632;2024-03-29T01:37:34;8.10;99.90
28530;DHT22;15737;49.760;6.632;2024-03-29T01:40:00;7.90;99.90
28530;DHT22;15737;49.760;6.632;2024-03-29T01:42:25;7.90;99.90
28530;DHT22;15737;49.760;6.632;2024-03-29T01:44:52;8.00;99.90
28530;DHT22;15737;49.760;6.632;2024-03-29T01:47:18;8.00;99.90
28530;DHT22;15737;49.760;6.632;2024-03-29T01:49:44;8.00;99.90
28530;DHT22;15737;49.760;6.632;2024-03-29T01:52:11;7.90;99.90
28530;DHT22;15737;49.760;6.632;2024-03-29T01:54:37;7.90;99.90
28530;DHT22;15737;49.760;6.632;2024-03-29T01:57:03;8.00;99.90
28530;DHT22;15737;49.760;6.632;2024-03-29T01:59:32;7.90;99.90
28530;DHT22;15737;49.760;6.632;2024-03-29T02:01:59;8.00;99.90
28530;DHT22;15737;49.760;6.632;2024-03-29T02:04:25;8.10;99.90
28530;DHT22;15737;49.760;6.632;2024-03-29T02:06:51;8.20;99.90
28530;DHT22;15737;49.760;6.632;2024-03-29T02:09:17;8.30;99.90
28530;DHT22;15737;49.760;6.632;2024-03-29T02:14:14;8.40;99.90
28530;DHT22;15737;49.760;6.632;2024-03-29T02:16:39;8.30;99.90
28530;DHT22;15737;49.760;6.632;2024-03-29T02:19:05;8.10;99.90
28530;DHT22;15737;49.760;6.632;2024-03-29T02:21:33;8.00;99.90
28530;DHT22;15737;49.760;6.632;2024-03-29T02:24:06;8.00;99.90
28530;DHT22;15737;49.760;6.632;2024-03-29T02:29:10;7.80;99.90
28530;DHT22;15737;49.760;6.632;2024-03-29T02:31:35;7.70;99.90
28530;DHT22;15737;49.760;6.632;2024-03-29T02:34:01;7.70;99.90
28530;DHT22;15737;49.760;6.632;2024-03-29T02:36:26;7.80;99.90
28530;DHT22;15737;49.760;6.632;2024-03-29T02:41:21;7.90;99.90
28530;DHT22;15737;49.760;6.632;2024-03-29T02:43:47;8.00;99.90
28530;DHT22;15737;49.760;6.632;2024-03-29T02:46:12;8.00;99.90
28530;DHT22;15737;49.760;6.632;2024-03-29T02:48:38;8.10;99.90
28530;DHT22;15737;49.760;6.632;2024-03-29T02:51:04;8.10;99.90
28530;DHT22;15737;49.760;6.632;2024-03-29T02:56:07;8.10;99.90
28530;DHT22;15737;49.760;6.632;2024-03-29T02:58:34;8.20;99.90
28530;DHT22;15737;49.760;6.632;2024-03-29T03:01:06;8.30;99.90
28530;DHT22;15737;49.760;6.632;2024-03-29T03:03:32;8.20;99.90
28530;DHT22;15737;49.760;6.632;2024-03-29T03:05:57;8.10;99.90
28530;DHT22;15737;49.760;6.632;2024-03-29T03:11:04;8.20;99.90
28530;DHT22;15737;49.760;6.632;2024-03-29T03:13:29;8.10;99.90
28530;DHT22;15737;49.760;6.632;2024-03-29T03:15:56;8.10;99.90
28530;DHT22;15737;49.760;6.632;2024-03-29T03:18:22;8.20;99.90
28530;DHT22;15737;49.760;6.632;2024-03-29T03:20:55;8.10;99.90
28530;DHT22;15737;49.760;6.632;2024-03-29T03:26:02;8.00;99.90
28530;DHT22;15737;49.760;6.632;2024-03-29T03:28:39;8.00;99.90
28530;DHT22;15737;49.760;6.632;2024-03-29T03:31:05;8.00;99.90
28530;DHT22;15737;49.760;6.632;2024-03-29T03:33:32;8.10;99.90
28530;DHT22;15737;49.760;6.632;2024-03-29T03:35:58;8.30;99.90
28530;DHT22;15737;49.760;6.632;2024-03-29T03:40:54;8.70;99.90
28530;DHT22;15737;49.760;6.632;2024-03-29T03:43:20;8.90;99.90
28530;DHT22;15737;49.760;6.632;2024-03-29T03:45:45;8.90;99.90
28530;DHT22;15737;49.760;6.632;2024-03-29T03:48:11;9.00;99.90
28530;DHT22;15737;49.760;6.632;2024-03-29T03:50:38;9.00;99.90
28530;DHT22;15737;49.760;6.632;2024-03-29T03:53:03;9.00;99.90
28530;DHT22;15737;49.760;6.632;2024-03-29T03:55:29;9.00;99.90
28530;DHT22;15737;49.760;6.632;2024-03-29T03:57:55;9.10;99.90
28530;DHT22;15737;49.760;6.632;2024-03-29T04:00:21;9.10;99.90
28530;DHT22;15737;49.760;6.632;2024-03-29T04:02:51;9.20;99.90
28530;DHT22;15737;49.760;6.632;2024-03-29T04:10:24;9.20;99.90
28530;DHT22;15737;49.760;6.632;2024-03-29T04:12:52;9.10;99.90
28530;DHT22;15737;49.760;6.632;2024-03-29T04:15:18;9.00;99.90
28530;DHT22;15737;49.760;6.632;2024-03-29T04:17:44;8.90;99.90
28530;DHT22;15737;49.760;6.632;2024-03-29T04:20:10;8.80;99.90
28530;DHT22;15737;49.760;6.632;2024-03-29T04:22:47;8.70;99.90
28530;DHT22;15737;49.760;6.632;2024-03-29T04:25:14;8.50;99.90
28530;DHT22;15737;49.760;6.632;2024-03-29T04:27:40;8.30;99.90
28530;DHT22;15737;49.760;6.632;2024-03-29T04:30:06;8.20;99.90
28530;DHT22;15737;49.760;6.632;2024-03-29T04:32:32;8.10;99.90
28530;DHT22;15737;49.760;6.632;2024-03-29T04:34:57;8.10;99.90
28530;DHT22;15737;49.760;6.632;2024-03-29T04:37:23;8.10;99.90
28530;DHT22;15737;49.760;6.632;2024-03-29T04:39:48;8.00;99.90
28530;DHT22;15737;49.760;6.632;2024-03-29T04:42:14;8.00;99.90
28530;DHT22;15737;49.760;6.632;2024-03-29T04:44:40;8.00;99.90
28530;DHT22;15737;49.760;6.632;2024-03-29T04:47:09;8.00;99.90
28530;DHT22;15737;49.760;6.632;2024-03-29T04:49:45;8.10;99.90
28530;DHT22;15737;49.760;6.632;2024-03-29T04:52:10;8.10;99.90
28530;DHT22;15737;49.760;6.632;2024-03-29T04:54:36;8.10;99.90
28530;DHT22;15737;49.760;6.632;2024-03-29T04:57:02;8.20;99.90
28530;DHT22;15737;49.760;6.632;2024-03-29T04:59:31;8.20;99.90
28530;DHT22;15737;49.760;6.632;2024-03-29T05:07:06;8.30;99.90
28530;DHT22;15737;49.760;6.632;2024-03-29T05:09:32;8.30;99.90
28530;DHT22;15737;49.760;6.632;2024-03-29T05:11:57;8.30;99.90
28530;DHT22;15737;49.760;6.632;2024-03-29T05:14:23;8.30;99.90
28530;DHT22;15737;49.760;6.632;2024-03-29T05:16:49;8.30;99.90
28530;DHT22;15737;49.760;6.632;2024-03-29T05:19:15;8.30;99.90
28530;DHT22;15737;49.760;6.632;2024-03-29T05:21:41;8.30;99.90
28530;DHT22;15737;49.760;6.632;2024-03-29T05:24:07;8.20;99.90
28530;DHT22;15737;49.760;6.632;2024-03-29T05:26:33;8.20;99.90
28530;DHT22;15737;49.760;6.632;2024-03-29T05:28:59;8.20;99.90
28530;DHT22;15737;49.760;6.632;2024-03-29T05:31:25;8.20;99.90
28530;DHT22;15737;49.760;6.632;2024-03-29T05:33:52;8.20;99.90
28530;DHT22;15737;49.760;6.632;2024-03-29T05:36:17;8.20;99.90
28530;DHT22;15737;49.760;6.632;2024-03-29T05:38:44;8.30;99.90
28530;DHT22;15737;49.760;6.632;2024-03-29T05:41:10;8.30;99.90
28530;DHT22;15737;49.760;6.632;2024-03-29T05:43:35;8.30;99.90
28530;DHT22;15737;49.760;6.632;2024-03-29T05:46:02;8.40;99.90
28530;DHT22;15737;49.760;6.632;2024-03-29T05:48:28;8.40;99.90
28530;DHT22;15737;49.760;6.632;2024-03-29T05:50:54;8.40;99.90
28530;DHT22;15737;49.760;6.632;2024-03-29T05:53:19;8.50;99.90
28530;DHT22;15737;49.760;6.632;2024-03-29T05:55:49;8.50;99.90
28530;DHT22;15737;49.760;6.632;2024-03-29T05:58:23;8.50;99.90
28530;DHT22;15737;49.760;6.632;2024-03-29T06:00:49;8.50;99.90
28530;DHT22;15737;49.760;6.632;2024-03-29T06:03:15;8.50;99.90
28530;DHT22;15737;49.760;6.632;2024-03-29T06:05:41;8.50;99.90
28530;DHT22;15737;49.760;6.632;2024-03-29T06:08:07;8.50;99.90
28530;DHT22;15737;49.760;6.632;2024-03-29T06:10:33;8.50;99.90
28530;DHT22;15737;49.760;6.632;2024-03-29T06:12:58;8.50;99.90
28530;DHT22;15737;49.760;6.632;2024-03-29T06:15:32;8.50;99.90
28530;DHT22;15737;49.760;6.632;2024-03-29T06:18:16;8.50;99.90
28530;DHT22;15737;49.760;6.632;2024-03-29T06:20:44;8.50;99.90
28530;DHT22;15737;49.760;6.632;2024-03-29T06:23:10;8.50;99.90
28530;DHT22;15737;49.760;6.632;2024-03-29T06:25:35;8.50;99.90
28530;DHT22;15737;49.760;6.632;2024-03-29T06:28:01;8.50;99.90
28530;DHT22;15737;49.760;6.632;2024-03-29T06:30:26;8.50;99.90
28530;DHT22;15737;49.760;6.632;2024-03-29T06:32:52;8.50;99.90
28530;DHT22;15737;49.760;6.632;2024-03-29T06:35:18;8.60;99.90
28530;DHT22;15737;49.760;6.632;2024-03-29T06:37:48;8.60;99.90
28530;DHT22;15737;49.760;6.632;2024-03-29T06:40:14;8.60;99.90
28530;DHT22;15737;49.760;6.632;2024-03-29T06:42:39;8.60;99.90
28530;DHT22;15737;49.760;6.632;2024-03-29T06:45:05;8.60;99.90
28530;DHT22;15737;49.760;6.632;2024-03-29T06:47:31;8.60;99.90
28530;DHT22;15737;49.760;6.632;2024-03-29T06:49:57;8.70;99.90
28530;DHT22;15737;49.760;6.632;2024-03-29T06:52:22;8.70;99.90
28530;DHT22;15737;49.760;6.632;2024-03-29T06:54:48;8.70;99.90
28530;DHT22;15737;49.760;6.632;2024-03-29T06:57:13;8.80;99.90
28530;DHT22;15737;49.760;6.632;2024-03-29T06:59:42;8.80;99.90
28530;DHT22;15737;49.760;6.632;2024-03-29T07:02:08;8.80;99.90
28530;DHT22;15737;49.760;6.632;2024-03-29T07:04:35;8.90;99.90
28530;DHT22;15737;49.760;6.632;2024-03-29T07:07:02;8.90;99.90
28530;DHT22;15737;49.760;6.632;2024-03-29T07:09:27;8.90;99.90
28530;DHT22;15737;49.760;6.632;2024-03-29T07:11:53;8.90;99.90
28530;DHT22;15737;49.760;6.632;2024-03-29T07:14:20;8.90;99.90
28530;DHT22;15737;49.760;6.632;2024-03-29T07:16:46;8.90;99.90
28530;DHT22;15737;49.760;6.632;2024-03-29T07:19:12;8.90;99.90
28530;DHT22;15737;49.760;6.632;2024-03-29T07:21:40;9.00;99.90
28530;DHT22;15737;49.760;6.632;2024-03-29T07:24:05;9.00;99.90
28530;DHT22;15737;49.760;6.632;2024-03-29T07:26:31;9.00;99.90
28530;DHT22;15737;49.760;6.632;2024-03-29T07:28:57;8.90;99.90
28530;DHT22;15737;49.760;6.632;2024-03-29T07:31:24;9.00;99.90
28530;DHT22;15737;49.760;6.632;2024-03-29T07:33:49;8.90;99.90
28530;DHT22;15737;49.760;6.632;2024-03-29T07:36:15;9.00;99.90
28530;DHT22;15737;49.760;6.632;2024-03-29T07:38:42;9.00;99.90
28530;DHT22;15737;49.760;6.632;2024-03-29T07:41:07;9.00;99.90
28530;DHT22;15737;49.760;6.632;2024-03-29T07:43:51;9.00;99.90
28530;DHT22;15737;49.760;6.632;2024-03-29T07:46:17;9.00;99.90
28530;DHT22;15737;49.760;6.632;2024-03-29T07:48:43;9.00;99.90
28530;DHT22;15737;49.760;6.632;2024-03-29T07:51:08;9.00;99.90
28530;DHT22;15737;49.760;6.632;2024-03-29T07:53:34;9.00;99.90
28530;DHT22;15737;49.760;6.632;2024-03-29T07:55:59;9.10;99.90
28530;DHT22;15737;49.760;6.632;2024-03-29T07:58:26;9.10;99.90
28530;DHT22;15737;49.760;6.632;2024-03-29T08:00:59;9.00;99.90
28530;DHT22;15737;49.760;6.632;2024-03-29T08:03:24;9.00;99.90
28530;DHT22;15737;49.760;6.632;2024-03-29T08:05:59;9.00;99.90
28530;DHT22;15737;49.760;6.632;2024-03-29T08:11:10;9.10;99.90
28530;DHT22;15737;49.760;6.632;2024-03-29T08:13:37;9.10;99.90
28530;DHT22;15737;49.760;6.632;2024-03-29T08:16:03;9.10;99.90
28530;DHT22;15737;49.760;6.632;2024-03-29T08:18:30;9.10;99.90
28530;DHT22;15737;49.760;6.632;2024-03-29T08:20:55;9.20;99.90
28530;DHT22;15737;49.760;6.632;2024-03-29T08:23:22;9.40;99.90
28530;DHT22;15737;49.760;6.632;2024-03-29T08:25:47;9.40;99.90
28530;DHT22;15737;49.760;6.632;2024-03-29T08:28:32;9.30;99.90
28530;DHT22;15737;49.760;6.632;2024-03-29T08:31:02;9.40;99.90
28530;DHT22;15737;49.760;6.632;2024-03-29T08:33:28;9.50;99.90
28530;DHT22;15737;49.760;6.632;2024-03-29T08:35:55;9.60;99.90
28530;DHT22;15737;49.760;6.632;2024-03-29T08:38:21;9.70;99.90
28530;DHT22;15737;49.760;6.632;2024-03-29T08:40:46;9.60;99.90
28530;DHT22;15737;49.760;6.632;2024-03-29T08:43:14;9.40;99.90
28530;DHT22;15737;49.760;6.632;2024-03-29T08:45:59;9.30;99.90
28530;DHT22;15737;49.760;6.632;2024-03-29T08:48:26;9.30;99.90
28530;DHT22;15737;49.760;6.632;2024-03-29T08:50:52;9.40;99.90
28530;DHT22;15737;49.760;6.632;2024-03-29T08:53:17;9.50;99.90
28530;DHT22;15737;49.760;6.632;2024-03-29T08:55:46;9.70;99.90
28530;DHT22;15737;49.760;6.632;2024-03-29T08:58:20;9.80;99.90
28530;DHT22;15737;49.760;6.632;2024-03-29T09:00:55;9.80;99.90
28530;DHT22;15737;49.760;6.632;2024-03-29T09:03:24;9.70;99.90
28530;DHT22;15737;49.760;6.632;2024-03-29T09:05:50;9.60;99.90
28530;DHT22;15737;49.760;6.632;2024-03-29T09:08:17;9.60;99.90
28530;DHT22;15737;49.760;6.632;2024-03-29T09:10:43;9.70;99.90
28530;DHT22;15737;49.760;6.632;2024-03-29T09:13:10;9.80;99.90
28530;DHT22;15737;49.760;6.632;2024-03-29T09:15:53;9.80;99.90
28530;DHT22;15737;49.760;6.632;2024-03-29T09:18:19;9.70;99.90
28530;DHT22;15737;49.760;6.632;2024-03-29T09:20:58;9.90;99.90
28530;DHT22;15737;49.760;6.632;2024-03-29T09:23:26;9.90;99.90
28530;DHT22;15737;49.760;6.632;2024-03-29T09:25:53;10.00;99.90
28530;DHT22;15737;49.760;6.632;2024-03-29T09:28:19;10.30;99.90
28530;DHT22;15737;49.760;6.632;2024-03-29T09:30:46;10.20;99.90
28530;DHT22;15737;49.760;6.632;2024-03-29T09:33:12;10.30;99.90
28530;DHT22;15737;49.760;6.632;2024-03-29T09:35:38;10.60;99.90
28530;DHT22;15737;49.760;6.632;2024-03-29T09:38:03;10.80;99.90
28530;DHT22;15737;49.760;6.632;2024-03-29T09:40:29;10.80;99.90
28530;DHT22;15737;49.760;6.632;2024-03-29T09:42:57;10.80;99.90
28530;DHT22;15737;49.760;6.632;2024-03-29T09:45:33;10.70;99.90
28530;DHT22;15737;49.760;6.632;2024-03-29T09:48:07;10.80;99.90
28530;DHT22;15737;49.760;6.632;2024-03-29T09:50:36;11.00;99.90
28530;DHT22;15737;49.760;6.632;2024-03-29T09:53:04;11.30;99.90
28530;DHT22;15737;49.760;6.632;2024-03-29T09:55:30;11.70;99.90
28530;DHT22;15737;49.760;6.632;2024-03-29T09:57:57;12.10;99.90
28530;DHT22;15737;49.760;6.632;2024-03-29T10:00:23;12.30;99.90
28530;DHT22;15737;49.760;6.632;2024-03-29T10:02:50;12.40;99.90
28530;DHT22;15737;49.760;6.632;2024-03-29T10:05:17;13.00;99.90
28530;DHT22;15737;49.760;6.632;2024-03-29T10:07:43;13.70;99.90
28530;DHT22;15737;49.760;6.632;2024-03-29T10:10:13;13.70;99.90
28530;DHT22;15737;49.760;6.632;2024-03-29T10:12:38;13.20;99.90
28530;DHT22;15737;49.760;6.632;2024-03-29T10:15:04;12.40;99.90
28530;DHT22;15737;49.760;6.632;2024-03-29T10:17:46;12.10;99.90
28530;DHT22;15737;49.760;6.632;2024-03-29T10:20:19;11.80;99.90
28530;DHT22;15737;49.760;6.632;2024-03-29T10:22:45;11.80;99.90
28530;DHT22;15737;49.760;6.632;2024-03-29T10:25:15;11.80;99.90
28530;DHT22;15737;49.760;6.632;2024-03-29T10:27:41;11.80;99.90
28530;DHT22;15737;49.760;6.632;2024-03-29T10:30:08;11.60;99.90
28530;DHT22;15737;49.760;6.632;2024-03-29T10:32:37;11.40;99.90
28530;DHT22;15737;49.760;6.632;2024-03-29T10:35:05;11.10;99.90
28530;DHT22;15737;49.760;6.632;2024-03-29T10:37:31;10.90;99.90
28530;DHT22;15737;49.760;6.632;2024-03-29T10:42:26;10.50;99.90
28530;DHT22;15737;49.760;6.632;2024-03-29T10:44:53;10.40;99.90
28530;DHT22;15737;49.760;6.632;2024-03-29T10:47:20;10.30;99.90
28530;DHT22;15737;49.760;6.632;2024-03-29T10:49:50;10.20;99.90
28530;DHT22;15737;49.760;6.632;2024-03-29T10:52:20;10.10;99.90
28530;DHT22;15737;49.760;6.632;2024-03-29T10:57:24;10.00;99.90
28530;DHT22;15737;49.760;6.632;2024-03-29T11:00:12;10.00;99.90
28530;DHT22;15737;49.760;6.632;2024-03-29T11:05:12;10.10;99.90
28530;DHT22;15737;49.760;6.632;2024-03-29T11:07:42;10.00;99.90
28530;DHT22;15737;49.760;6.632;2024-03-29T11:15:30;10.10;99.90
28530;DHT22;15737;49.760;6.632;2024-03-29T11:17:57;10.10;99.90
28530;DHT22;15737;49.760;6.632;2024-03-29T11:20:27;10.10;99.90
28530;DHT22;15737;49.760;6.632;2024-03-29T11:23:13;10.20;99.90
28530;DHT22;15737;49.760;6.632;2024-03-29T11:25:44;10.10;99.90
28530;DHT22;15737;49.760;6.632;2024-03-29T11:28:15;10.10;99.90
28530;DHT22;15737;49.760;6.632;2024-03-29T11:35:51;10.40;99.90
28530;DHT22;15737;49.760;6.632;2024-03-29T11:38:19;10.40;99.90
28530;DHT22;15737;49.760;6.632;2024-03-29T11:43:41;10.40;99.90
28530;DHT22;15737;49.760;6.632;2024-03-29T11:46:09;10.30;99.90
28530;DHT22;15737;49.760;6.632;2024-03-29T11:48:44;10.30;99.90
28530;DHT22;15737;49.760;6.632;2024-03-29T11:51:13;10.30;99.90
28530;DHT22;15737;49.760;6.632;2024-03-29T11:53:41;10.40;99.90
28530;DHT22;15737;49.760;6.632;2024-03-29T11:56:06;10.50;99.90
28530;DHT22;15737;49.760;6.632;2024-03-29T11:58:33;10.70;99.90
28530;DHT22;15737;49.760;6.632;2024-03-29T12:01:00;10.70;99.90
28530;DHT22;15737;49.760;6.632;2024-03-29T12:03:53;10.70;99.90
28530;DHT22;15737;49.760;6.632;2024-03-29T12:06:20;10.60;99.90
28530;DHT22;15737;49.760;6.632;2024-03-29T12:08:45;10.60;99.90
28530;DHT22;15737;49.760;6.632;2024-03-29T12:11:11;10.60;99.90
28530;DHT22;15737;49.760;6.632;2024-03-29T12:13:36;10.50;99.90
28530;DHT22;15737;49.760;6.632;2024-03-29T12:16:02;10.40;99.90
28530;DHT22;15737;49.760;6.632;2024-03-29T12:18:38;10.30;99.90
28530;DHT22;15737;49.760;6.632;2024-03-29T12:21:03;10.20;99.90
28530;DHT22;15737;49.760;6.632;2024-03-29T12:23:29;10.30;99.90
28530;DHT22;15737;49.760;6.632;2024-03-29T12:25:57;10.30;99.90
28530;DHT22;15737;49.760;6.632;2024-03-29T12:28:24;10.40;99.90
28530;DHT22;15737;49.760;6.632;2024-03-29T12:30:49;10.50;99.90
28530;DHT22;15737;49.760;6.632;2024-03-29T12:33:17;10.50;99.90
28530;DHT22;15737;49.760;6.632;2024-03-29T12:35:51;10.50;99.90
28530;DHT22;15737;49.760;6.632;2024-03-29T12:38:21;10.40;99.90
28530;DHT22;15737;49.760;6.632;2024-03-29T12:40:48;10.30;99.90
28530;DHT22;15737;49.760;6.632;2024-03-29T12:43:15;10.30;99.90
28530;DHT22;15737;49.760;6.632;2024-03-29T12:45:45;10.20;99.90
28530;DHT22;15737;49.760;6.632;2024-03-29T12:48:13;10.20;99.90
28530;DHT22;15737;49.760;6.632;2024-03-29T12:50:41;10.30;99.90
28530;DHT22;15737;49.760;6.632;2024-03-29T12:53:09;10.40;99.90
28530;DHT22;15737;49.760;6.632;2024-03-29T12:55:35;10.70;99.90
28530;DHT22;15737;49.760;6.632;2024-03-29T12:58:02;10.80;99.90
28530;DHT22;15737;49.760;6.632;2024-03-29T13:00:30;11.00;99.90
28530;DHT22;15737;49.760;6.632;2024-03-29T13:02:55;11.30;99.90
28530;DHT22;15737;49.760;6.632;2024-03-29T13:05:21;11.50;99.90
28530;DHT22;15737;49.760;6.632;2024-03-29T13:07:47;11.90;99.90
28530;DHT22;15737;49.760;6.632;2024-03-29T13:10:12;12.40;99.90
28530;DHT22;15737;49.760;6.632;2024-03-29T13:12:42;12.50;99.90
28530;DHT22;15737;49.760;6.632;2024-03-29T13:15:35;12.70;99.90
28530;DHT22;15737;49.760;6.632;2024-03-29T13:18:02;12.70;99.90
28530;DHT22;15737;49.760;6.632;2024-03-29T13:20:29;12.60;99.90
28530;DHT22;15737;49.760;6.632;2024-03-29T13:22:55;12.60;99.90
28530;DHT22;15737;49.760;6.632;2024-03-29T13:25:21;12.50;99.90
28530;DHT22;15737;49.760;6.632;2024-03-29T13:27:51;12.70;99.90
28530;DHT22;15737;49.760;6.632;2024-03-29T13:30:24;12.70;99.90
28530;DHT22;15737;49.760;6.632;2024-03-29T13:32:51;12.60;99.90
28530;DHT22;15737;49.760;6.632;2024-03-29T13:35:17;12.40;99.90
28530;DHT22;15737;49.760;6.632;2024-03-29T13:37:44;12.60;99.90
28530;DHT22;15737;49.760;6.632;2024-03-29T13:40:18;12.90;99.90
28530;DHT22;15737;49.760;6.632;2024-03-29T13:42:44;12.80;99.90
28530;DHT22;15737;49.760;6.632;2024-03-29T13:45:10;12.30;99.90
28530;DHT22;15737;49.760;6.632;2024-03-29T13:47:40;12.00;99.90
28530;DHT22;15737;49.760;6.632;2024-03-29T13:50:07;11.80;99.90
28530;DHT22;15737;49.760;6.632;2024-03-29T13:52:33;11.70;99.90
28530;DHT22;15737;49.760;6.632;2024-03-29T13:54:59;11.60;99.90
28530;DHT22;15737;49.760;6.632;2024-03-29T13:57:25;11.30;99.90
28530;DHT22;15737;49.760;6.632;2024-03-29T13:59:50;11.20;99.90
28530;DHT22;15737;49.760;6.632;2024-03-29T14:02:17;11.00;99.90
28530;DHT22;15737;49.760;6.632;2024-03-29T14:04:47;10.90;99.90
28530;DHT22;15737;49.760;6.632;2024-03-29T14:07:14;10.70;99.90
28530;DHT22;15737;49.760;6.632;2024-03-29T14:09:44;10.60;99.90
28530;DHT22;15737;49.760;6.632;2024-03-29T14:12:10;10.60;99.90
28530;DHT22;15737;49.760;6.632;2024-03-29T14:14:36;10.50;99.90
28530;DHT22;15737;49.760;6.632;2024-03-29T14:17:03;10.50;99.90
28530;DHT22;15737;49.760;6.632;2024-03-29T14:19:39;10.40;99.90
28530;DHT22;15737;49.760;6.632;2024-03-29T14:22:06;10.30;99.90
28530;DHT22;15737;49.760;6.632;2024-03-29T14:24:32;10.30;99.90
28530;DHT22;15737;49.760;6.632;2024-03-29T14:27:08;10.30;99.90
28530;DHT22;15737;49.760;6.632;2024-03-29T14:29:35;10.40;99.90
28530;DHT22;15737;49.760;6.632;2024-03-29T14:32:01;10.40;99.90
28530;DHT22;15737;49.760;6.632;2024-03-29T14:34:27;10.40;99.90
28530;DHT22;15737;49.760;6.632;2024-03-29T14:36:53;10.40;99.90
28530;DHT22;15737;49.760;6.632;2024-03-29T14:39:19;10.40;99.90
28530;DHT22;15737;49.760;6.632;2024-03-29T14:41:49;10.50;99.90
28530;DHT22;15737;49.760;6.632;2024-03-29T14:44:31;10.60;99.90
28530;DHT22;15737;49.760;6.632;2024-03-29T14:46:56;10.90;99.90
28530;DHT22;15737;49.760;6.632;2024-03-29T14:49:21;11.20;99.90
28530;DHT22;15737;49.760;6.632;2024-03-29T14:51:48;11.30;99.90
28530;DHT22;15737;49.760;6.632;2024-03-29T14:54:13;11.30;99.90
28530;DHT22;15737;49.760;6.632;2024-03-29T14:56:40;11.10;99.90
28530;DHT22;15737;49.760;6.632;2024-03-29T14:59:07;11.20;99.90
28530;DHT22;15737;49.760;6.632;2024-03-29T15:01:37;11.20;99.90
28530;DHT22;15737;49.760;6.632;2024-03-29T15:04:02;11.10;99.90
28530;DHT22;15737;49.760;6.632;2024-03-29T15:06:28;11.00;99.90
28530;DHT22;15737;49.760;6.632;2024-03-29T15:08:57;10.90;99.90
28530;DHT22;15737;49.760;6.632;2024-03-29T15:11:25;10.70;99.90
28530;DHT22;15737;49.760;6.632;2024-03-29T15:13:50;10.60;99.90
28530;DHT22;15737;49.760;6.632;2024-03-29T15:16:16;10.60;99.90
28530;DHT22;15737;49.760;6.632;2024-03-29T15:18:43;10.50;99.90
28530;DHT22;15737;49.760;6.632;2024-03-29T15:21:08;10.40;99.90
28530;DHT22;15737;49.760;6.632;2024-03-29T15:23:35;10.30;99.90
28530;DHT22;15737;49.760;6.632;2024-03-29T15:28:30;10.20;99.90
28530;DHT22;15737;49.760;6.632;2024-03-29T15:31:20;10.10;99.90
28530;DHT22;15737;49.760;6.632;2024-03-29T15:33:50;10.20;99.90
28530;DHT22;15737;49.760;6.632;2024-03-29T15:36:17;10.20;99.90
28530;DHT22;15737;49.760;6.632;2024-03-29T15:38:52;10.20;99.90
28530;DHT22;15737;49.760;6.632;2024-03-29T15:41:20;10.20;99.90
28530;DHT22;15737;49.760;6.632;2024-03-29T15:43:45;10.10;99.90
28530;DHT22;15737;49.760;6.632;2024-03-29T15:46:11;10.10;99.90
28530;DHT22;15737;49.760;6.632;2024-03-29T15:48:37;10.00;99.90
28530;DHT22;15737;49.760;6.632;2024-03-29T15:51:07;10.00;99.90
28530;DHT22;15737;49.760;6.632;2024-03-29T15:53:36;9.90;99.90
28530;DHT22;15737;49.760;6.632;2024-03-29T15:56:03;9.90;99.90
28530;DHT22;15737;49.760;6.632;2024-03-29T15:58:29;9.90;99.90
28530;DHT22;15737;49.760;6.632;2024-03-29T16:00:54;10.00;99.90
28530;DHT22;15737;49.760;6.632;2024-03-29T16:03:20;10.20;99.90
28530;DHT22;15737;49.760;6.632;2024-03-29T16:05:46;10.20;99.90
28530;DHT22;15737;49.760;6.632;2024-03-29T16:08:13;10.20;99.90
28530;DHT22;15737;49.760;6.632;2024-03-29T16:10:54;10.20;99.90
28530;DHT22;15737;49.760;6.632;2024-03-29T16:13:21;10.40;99.90
28530;DHT22;15737;49.760;6.632;2024-03-29T16:15:47;10.50;99.90
28530;DHT22;15737;49.760;6.632;2024-03-29T16:18:14;10.60;99.90
28530;DHT22;15737;49.760;6.632;2024-03-29T16:20:42;10.50;99.90
28530;DHT22;15737;49.760;6.632;2024-03-29T16:23:10;10.40;99.90
28530;DHT22;15737;49.760;6.632;2024-03-29T16:25:36;10.30;99.90
28530;DHT22;15737;49.760;6.632;2024-03-29T16:28:03;10.20;99.90
28530;DHT22;15737;49.760;6.632;2024-03-29T16:30:30;10.20;99.90
28530;DHT22;15737;49.760;6.632;2024-03-29T16:32:56;10.20;99.90
28530;DHT22;15737;49.760;6.632;2024-03-29T16:35:21;10.30;99.90
28530;DHT22;15737;49.760;6.632;2024-03-29T16:37:47;10.40;99.90
28530;DHT22;15737;49.760;6.632;2024-03-29T16:40:13;10.50;99.90
28530;DHT22;15737;49.760;6.632;2024-03-29T16:42:38;10.60;99.90
28530;DHT22;15737;49.760;6.632;2024-03-29T16:45:04;10.50;99.90